createdAt,value
2022-08-17T00:01:52.706Z,16.39
2022-08-17T00:04:20.477Z,16.39
2022-08-17T00:06:49.134Z,16.36
2022-08-17T00:09:18.718Z,16.33
2022-08-17T00:12:41.391Z,16.33
2022-08-17T00:14:36.219Z,16.28
2022-08-17T00:17:04.849Z,16.26
2022-08-17T00:19:33.016Z,16.24
2022-08-17T00:22:34.522Z,16.25
2022-08-17T00:24:50.969Z,16.24
2022-08-17T00:27:18.759Z,16.21
2022-08-17T00:29:46.025Z,16.20
2022-08-17T00:33:15.778Z,16.20
2022-08-17T00:35:04.229Z,16.13
2022-08-17T00:37:30.964Z,16.08
2022-08-17T00:39:57.799Z,16.07
2022-08-17T00:42:28.956Z,16.06
2022-08-17T00:44:57.864Z,16.06
2022-08-17T00:47:24.695Z,16.04
2022-08-17T00:49:51.991Z,16.02
2022-08-17T00:52:23.251Z,16.02
2022-08-17T00:54:54.107Z,16.00
2022-08-17T00:57:30.125Z,15.98
2022-08-17T01:00:11.466Z,15.98
2022-08-17T01:02:43.333Z,15.96
2022-08-17T01:05:19.810Z,15.93
2022-08-17T01:07:51.042Z,15.92
2022-08-17T01:10:59.360Z,15.90
2022-08-17T01:13:10.327Z,15.82
2022-08-17T01:15:41.505Z,15.79
2022-08-17T01:18:14.220Z,15.81
2022-08-17T01:20:53.422Z,15.77
2022-08-17T01:23:23.651Z,15.73
2022-08-17T01:25:53.395Z,15.71
2022-08-17T01:28:36.457Z,15.62
2022-08-17T01:31:09.562Z,15.59
2022-08-17T01:33:37.199Z,15.55
2022-08-17T01:36:06.966Z,15.56
2022-08-17T01:38:37.914Z,15.53
2022-08-17T01:41:11.337Z,15.52
2022-08-17T01:43:46.051Z,15.53
2022-08-17T01:46:22.445Z,15.52
2022-08-17T01:48:51.262Z,15.53
2022-08-17T01:51:18.277Z,15.45
2022-08-17T01:53:50.573Z,15.43
2022-08-17T01:56:19.953Z,15.42
2022-08-17T01:58:46.769Z,15.38
2022-08-17T02:01:14.893Z,15.39
2022-08-17T02:03:42.392Z,15.38
2022-08-17T02:06:27.539Z,15.38
2022-08-17T02:09:01.780Z,15.41
2022-08-17T02:11:30.926Z,15.39
2022-08-17T02:14:02.794Z,15.38
2022-08-17T02:16:37.931Z,15.39
2022-08-17T02:19:15.986Z,15.41
2022-08-17T02:21:45.125Z,15.42
2022-08-17T02:24:15.857Z,15.42
2022-08-17T02:26:42.714Z,15.41
2022-08-17T02:29:09.404Z,15.40
2022-08-17T02:31:36.168Z,15.38
2022-08-17T02:34:05.004Z,15.39
2022-08-17T02:36:36.274Z,15.39
2022-08-17T02:39:07.733Z,15.38
2022-08-17T02:41:34.638Z,15.39
2022-08-17T02:44:01.629Z,15.40
2022-08-17T02:46:30.493Z,15.37
2022-08-17T02:48:57.566Z,15.39
2022-08-17T02:51:24.607Z,15.36
2022-08-17T02:53:51.669Z,15.36
2022-08-17T02:56:18.372Z,15.33
2022-08-17T02:58:45.235Z,15.28
2022-08-17T03:01:12.837Z,15.27
2022-08-17T03:03:40.102Z,15.28
2022-08-17T03:06:07.898Z,15.28
2022-08-17T03:08:36.503Z,15.31
2022-08-17T03:11:03.841Z,15.29
2022-08-17T03:13:30.982Z,15.27
2022-08-17T03:15:57.920Z,15.19
2022-08-17T03:18:26.360Z,15.19
2022-08-17T03:20:59.193Z,15.19
2022-08-17T03:23:27.326Z,15.16
2022-08-17T03:25:55.615Z,15.16
2022-08-17T03:28:23.886Z,15.17
2022-08-17T03:30:51.528Z,15.15
2022-08-17T03:33:19.278Z,15.12
2022-08-17T03:35:46.281Z,15.10
2022-08-17T03:38:14.997Z,15.10
2022-08-17T03:40:56.388Z,15.11
2022-08-17T03:43:31.027Z,15.03
2022-08-17T03:46:27.823Z,14.98
2022-08-17T03:49:21.978Z,14.95
2022-08-17T03:52:07.559Z,14.95
2022-08-17T03:54:52.842Z,14.95
2022-08-17T03:57:19.469Z,14.92
2022-08-17T03:59:47.715Z,14.89
2022-08-17T04:02:20.042Z,14.91
2022-08-17T04:04:50.907Z,14.89
2022-08-17T04:07:19.741Z,14.90
2022-08-17T04:09:46.571Z,14.88
2022-08-17T04:12:16.396Z,14.88
2022-08-17T04:14:53.699Z,14.85
2022-08-17T04:17:23.911Z,14.78
2022-08-17T04:19:50.713Z,14.81
2022-08-17T04:22:32.818Z,14.87
2022-08-17T04:25:04.321Z,14.88
2022-08-17T04:27:31.030Z,14.87
2022-08-17T04:29:58.617Z,14.88
2022-08-17T04:33:03.552Z,14.89
2022-08-17T04:35:12.224Z,14.86
2022-08-17T04:41:37.717Z,14.86
2022-08-17T04:44:04.700Z,14.87
2022-08-17T04:46:35.152Z,14.89
2022-08-17T04:49:06.949Z,14.86
2022-08-17T04:51:36.492Z,14.87
2022-08-17T04:54:09.420Z,14.89
2022-08-17T04:56:36.698Z,14.92
2022-08-17T04:59:09.060Z,14.92
2022-08-17T05:01:37.967Z,14.95
2022-08-17T05:04:33.322Z,14.95
2022-08-17T05:06:58.761Z,15.01
2022-08-17T05:09:25.487Z,14.99
2022-08-17T05:11:52.185Z,15.02
2022-08-17T05:14:18.877Z,15.02
2022-08-17T05:16:48.315Z,15.03
2022-08-17T05:19:14.989Z,15.07
2022-08-17T05:21:41.731Z,15.06
2022-08-17T05:24:12.839Z,15.06
2022-08-17T05:26:55.362Z,15.11
2022-08-17T05:29:22.027Z,15.36
2022-08-17T05:32:38.951Z,15.78
2022-08-17T05:35:00.398Z,16.32
2022-08-17T05:37:27.606Z,16.82
2022-08-17T05:39:54.417Z,17.14
2022-08-17T05:42:21.347Z,17.38
2022-08-17T05:44:48.493Z,17.76
2022-08-17T05:47:15.298Z,17.98
2022-08-17T05:49:42.115Z,18.28
2022-08-17T05:52:08.871Z,18.67
2022-08-17T05:54:58.280Z,19.18
2022-08-17T05:57:39.578Z,19.62
2022-08-17T06:00:20.240Z,19.93
2022-08-17T06:03:08.564Z,20.15
2022-08-17T06:05:59.557Z,20.12
2022-08-17T06:08:44.820Z,20.35
2022-08-17T06:11:20.451Z,20.37
2022-08-17T06:14:18.461Z,20.51
2022-08-17T06:16:49.288Z,20.38
2022-08-17T06:19:24.539Z,20.61
2022-08-17T06:21:54.130Z,20.75
2022-08-17T06:24:29.901Z,21.01
2022-08-17T06:27:06.625Z,21.40
2022-08-17T06:29:41.954Z,21.81
2022-08-17T06:32:12.970Z,22.07
2022-08-17T06:34:43.744Z,22.52
2022-08-17T06:37:22.495Z,22.87
2022-08-17T06:39:51.825Z,22.96
2022-08-17T06:43:02.136Z,23.03
2022-08-17T06:45:43.627Z,23.17
2022-08-17T06:48:15.374Z,23.34
2022-08-17T06:50:53.497Z,23.63
2022-08-17T06:53:25.234Z,23.76
2022-08-17T06:56:02.122Z,23.88
2022-08-17T06:58:31.558Z,24.07
2022-08-17T07:01:08.517Z,24.45
2022-08-17T07:03:42.191Z,24.61
2022-08-17T07:06:16.007Z,24.90
2022-08-17T07:09:02.889Z,25.10
2022-08-17T07:11:32.491Z,24.74
2022-08-17T07:14:08.254Z,24.99
2022-08-17T07:16:44.105Z,25.17
2022-08-17T07:19:11.480Z,25.41
2022-08-17T07:21:44.107Z,25.49
2022-08-17T07:24:35.527Z,25.51
2022-08-17T07:27:22.908Z,25.70
2022-08-17T07:30:03.737Z,25.99
2022-08-17T07:32:46.091Z,26.25
2022-08-17T07:35:41.246Z,26.22
2022-08-17T07:38:24.637Z,26.27
2022-08-17T07:41:06.047Z,26.53
2022-08-17T07:43:40.037Z,26.74
2022-08-17T07:46:39.637Z,26.96
2022-08-17T07:49:09.151Z,27.30
2022-08-17T07:51:41.074Z,27.30
2022-08-17T07:54:22.961Z,27.04
2022-08-17T07:57:29.794Z,27.34
2022-08-17T08:00:16.953Z,27.66
2022-08-17T08:02:47.989Z,27.90
2022-08-17T08:05:30.852Z,27.90
2022-08-17T08:08:26.156Z,27.89
2022-08-17T08:11:28.456Z,27.76
2022-08-17T08:13:55.202Z,27.80
2022-08-17T08:16:29.304Z,28.05
2022-08-17T08:18:59.212Z,28.29
2022-08-17T08:21:35.018Z,28.39
2022-08-17T08:24:53.273Z,27.88
2022-08-17T08:27:33.861Z,27.39
2022-08-17T08:30:08.683Z,27.64
2022-08-17T08:33:00.461Z,27.64
2022-08-17T08:35:49.226Z,28.12
2022-08-17T08:38:28.271Z,28.53
2022-08-17T08:41:16.543Z,28.31
2022-08-17T08:44:01.620Z,28.76
2022-08-17T08:46:36.532Z,28.49
2022-08-17T08:49:17.098Z,28.76
2022-08-17T08:51:55.710Z,29.03
2022-08-17T08:54:28.300Z,28.73
2022-08-17T08:57:32.907Z,28.97
2022-08-17T09:00:05.673Z,29.34
2022-08-17T09:02:34.642Z,29.36
2022-08-17T09:05:19.946Z,29.40
2022-08-17T09:08:02.096Z,29.20
2022-08-17T09:10:56.877Z,28.85
2022-08-17T09:13:54.353Z,29.19
2022-08-17T09:16:29.834Z,29.41
2022-08-17T09:19:08.817Z,29.47
2022-08-17T09:21:49.784Z,29.32
2022-08-17T09:24:32.245Z,29.94
2022-08-17T09:27:13.553Z,29.53
2022-08-17T09:29:46.556Z,29.61
2022-08-17T09:32:28.706Z,29.50
2022-08-17T09:35:02.765Z,29.62
2022-08-17T09:37:35.250Z,29.44
2022-08-17T09:40:18.902Z,29.42
2022-08-17T09:42:50.588Z,29.43
2022-08-17T09:45:42.700Z,29.58
2022-08-17T09:48:24.240Z,29.76
2022-08-17T09:51:07.157Z,30.01
2022-08-17T09:53:37.516Z,29.54
2022-08-17T09:56:13.438Z,29.84
2022-08-17T09:59:09.064Z,30.09
2022-08-17T10:01:42.624Z,30.23
2022-08-17T10:04:32.707Z,30.10
2022-08-17T10:07:12.375Z,29.95
2022-08-17T10:09:43.792Z,29.83
2022-08-17T10:12:29.730Z,29.85
2022-08-17T10:14:59.988Z,29.90
2022-08-17T10:17:41.077Z,30.17
2022-08-17T10:20:31.426Z,30.34
2022-08-17T10:23:34.481Z,30.33
2022-08-17T10:26:25.043Z,30.44
2022-08-17T10:29:00.435Z,30.46
2022-08-17T10:31:37.888Z,30.46
2022-08-17T10:34:41.554Z,30.19
2022-08-17T10:37:28.332Z,30.39
2022-08-17T10:40:19.543Z,30.32
2022-08-17T10:43:14.668Z,30.19
2022-08-17T10:46:09.486Z,29.99
2022-08-17T10:48:42.644Z,30.15
2022-08-17T10:51:32.997Z,30.38
2022-08-17T10:54:01.534Z,30.39
2022-08-17T10:56:51.242Z,30.32
2022-08-17T10:59:51.265Z,30.20
2022-08-17T11:02:26.174Z,30.41
2022-08-17T11:05:18.750Z,30.34
2022-08-17T11:08:12.745Z,30.38
2022-08-17T11:10:42.397Z,30.48
2022-08-17T11:13:37.814Z,30.70
2022-08-17T11:16:26.275Z,30.82
2022-08-17T11:18:55.766Z,30.65
2022-08-17T11:21:33.419Z,30.50
2022-08-17T11:24:14.122Z,30.41
2022-08-17T11:26:47.618Z,30.48
2022-08-17T11:29:30.064Z,30.61
2022-08-17T11:32:23.548Z,30.76
2022-08-17T11:34:50.683Z,30.77
2022-08-17T11:37:32.069Z,30.71
2022-08-17T11:40:15.253Z,30.73
2022-08-17T11:43:04.800Z,30.71
2022-08-17T11:45:43.291Z,30.72
2022-08-17T11:48:56.615Z,30.40
2022-08-17T11:51:44.417Z,30.40
2022-08-17T11:54:33.685Z,30.60
2022-08-17T11:57:26.744Z,30.50
2022-08-17T11:59:59.078Z,30.59
2022-08-17T12:02:29.856Z,30.44
2022-08-17T12:05:04.298Z,30.44
2022-08-17T12:07:42.635Z,30.38
2022-08-17T12:10:12.411Z,30.38
2022-08-17T12:12:44.296Z,30.28
2022-08-17T12:15:28.652Z,30.28
2022-08-17T12:17:57.121Z,30.28
2022-08-17T12:20:24.335Z,30.11
2022-08-17T12:23:18.711Z,30.09
2022-08-17T12:26:00.723Z,30.15
2022-08-17T12:28:33.340Z,30.17
2022-08-17T12:31:07.889Z,30.17
2022-08-17T12:33:37.349Z,30.08
2022-08-17T12:36:08.600Z,30.21
2022-08-17T12:38:38.119Z,30.03
2022-08-17T12:41:25.939Z,30.13
2022-08-17T12:44:05.191Z,30.10
2022-08-17T12:46:49.087Z,30.03
2022-08-17T12:49:23.022Z,30.05
2022-08-17T12:51:51.461Z,30.07
2022-08-17T12:54:34.784Z,29.98
2022-08-17T12:57:12.028Z,29.97
2022-08-17T12:59:47.016Z,29.83
2022-08-17T13:02:28.401Z,29.74
2022-08-17T13:04:58.691Z,29.78
2022-08-17T13:07:27.500Z,29.83
2022-08-17T13:09:54.258Z,29.82
2022-08-17T13:12:34.167Z,29.85
2022-08-17T13:15:01.534Z,29.92
2022-08-17T13:17:32.833Z,29.83
2022-08-17T13:19:59.577Z,29.86
2022-08-17T13:22:29.427Z,29.67
2022-08-17T13:25:00.877Z,29.77
2022-08-17T13:27:30.187Z,29.72
2022-08-17T13:30:00.994Z,29.70
2022-08-17T13:32:31.131Z,29.71
2022-08-17T13:35:15.463Z,29.65
2022-08-17T13:37:58.942Z,29.67
2022-08-17T13:40:41.760Z,29.77
2022-08-17T13:43:09.677Z,29.59
2022-08-17T13:45:50.320Z,29.35
2022-08-17T13:48:31.052Z,29.14
2022-08-17T13:50:57.671Z,29.19
2022-08-17T13:53:50.591Z,29.18
2022-08-17T13:56:38.621Z,28.99
2022-08-17T13:59:09.879Z,28.99
2022-08-17T14:01:53.402Z,29.01
2022-08-17T14:04:32.652Z,29.02
2022-08-17T14:07:20.359Z,28.86
2022-08-17T14:09:53.390Z,28.61
2022-08-17T14:12:24.822Z,28.63
2022-08-17T14:14:52.440Z,28.77
2022-08-17T14:17:19.218Z,28.74
2022-08-17T14:19:45.922Z,28.73
2022-08-17T14:22:19.815Z,28.68
2022-08-17T14:24:46.563Z,28.52
2022-08-17T14:27:13.266Z,28.37
2022-08-17T14:29:41.333Z,28.73
2022-08-17T14:32:20.349Z,28.79
2022-08-17T14:34:49.695Z,28.57
2022-08-17T14:37:18.105Z,28.54
2022-08-17T14:39:45.311Z,28.37
2022-08-17T14:42:12.716Z,28.26
2022-08-17T14:44:40.210Z,28.09
2022-08-17T14:47:12.307Z,27.96
2022-08-17T14:49:39.028Z,27.83
2022-08-17T14:52:06.073Z,27.85
2022-08-17T14:54:34.102Z,27.88
2022-08-17T14:57:22.486Z,27.78
2022-08-17T14:59:54.702Z,27.65
2022-08-17T15:02:29.738Z,27.56
2022-08-17T15:05:05.163Z,27.45
2022-08-17T15:07:32.024Z,27.48
2022-08-17T15:10:01.392Z,27.46
2022-08-17T15:12:32.652Z,27.43
2022-08-17T15:15:00.834Z,27.27
2022-08-17T15:17:43.758Z,27.15
2022-08-17T15:20:18.212Z,27.01
2022-08-17T15:22:46.656Z,26.88
2022-08-17T15:25:14.164Z,26.77
2022-08-17T15:27:41.453Z,26.69
2022-08-17T15:30:10.088Z,26.78
2022-08-17T15:32:39.414Z,26.68
2022-08-17T15:35:09.255Z,26.63
2022-08-17T15:37:36.458Z,26.55
2022-08-17T15:40:05.283Z,26.49
2022-08-17T15:42:32.134Z,26.39
2022-08-17T15:45:00.160Z,26.30
2022-08-17T15:47:27.011Z,26.32
2022-08-17T15:49:59.452Z,26.23
2022-08-17T15:52:29.817Z,26.22
2022-08-17T15:55:01.056Z,26.17
2022-08-17T15:57:27.838Z,26.15
2022-08-17T15:59:58.560Z,26.13
2022-08-17T16:03:45.452Z,26.09
2022-08-17T16:05:24.225Z,26.10
2022-08-17T16:07:52.566Z,25.99
2022-08-17T16:10:19.988Z,25.92
2022-08-17T16:12:48.735Z,25.87
2022-08-17T16:15:16.591Z,25.83
2022-08-17T16:17:43.457Z,25.81
2022-08-17T16:20:20.597Z,25.80
2022-08-17T16:22:49.616Z,25.68
2022-08-17T16:25:22.388Z,25.60
2022-08-17T16:27:54.127Z,25.59
2022-08-17T16:30:24.633Z,25.59
2022-08-17T16:32:53.137Z,25.56
2022-08-17T16:35:22.698Z,25.54
2022-08-17T16:37:49.443Z,25.52
2022-08-17T16:40:17.104Z,25.52
2022-08-17T16:42:46.121Z,25.43
2022-08-17T16:45:26.070Z,25.37
2022-08-17T16:47:55.368Z,25.33
2022-08-17T16:50:23.672Z,25.32
2022-08-17T16:52:51.176Z,25.24
2022-08-17T16:55:21.292Z,25.16
2022-08-17T16:57:50.578Z,25.08
2022-08-17T17:00:21.018Z,25.03
2022-08-17T17:02:49.654Z,24.97
2022-08-17T17:05:58.355Z,24.91
2022-08-17T17:08:34.089Z,24.85
2022-08-17T17:11:09.644Z,24.75
2022-08-17T17:13:43.866Z,24.63
2022-08-17T17:16:28.905Z,24.55
2022-08-17T17:19:18.108Z,24.53
2022-08-17T17:22:07.474Z,24.45
2022-08-17T17:24:55.375Z,24.40
2022-08-17T17:27:57.351Z,24.34
2022-08-17T17:30:33.274Z,24.30
2022-08-17T17:33:09.273Z,24.17
2022-08-17T17:35:46.635Z,24.09
2022-08-17T17:38:22.192Z,24.02
2022-08-17T17:40:53.897Z,23.94
2022-08-17T17:43:44.863Z,23.88
2022-08-17T17:46:26.698Z,23.83
2022-08-17T17:48:56.848Z,23.78
2022-08-17T17:52:02.795Z,23.74
2022-08-17T17:55:13.281Z,23.67
2022-08-17T17:57:48.685Z,23.59
2022-08-17T18:00:24.693Z,23.53
2022-08-17T18:03:01.533Z,23.47
2022-08-17T18:05:37.417Z,23.41
2022-08-17T18:08:34.688Z,23.34
2022-08-17T18:11:46.073Z,23.23
2022-08-17T18:14:26.059Z,23.08
2022-08-17T18:16:57.175Z,22.97
2022-08-17T18:19:26.028Z,22.91
2022-08-17T18:22:05.215Z,22.84
2022-08-17T18:24:37.919Z,22.77
2022-08-17T18:27:23.376Z,22.66
2022-08-17T18:29:53.356Z,22.58
2022-08-17T18:32:37.097Z,22.50
2022-08-17T18:35:09.649Z,22.40
2022-08-17T18:37:40.340Z,22.35
2022-08-17T18:40:19.635Z,22.23
2022-08-17T18:43:10.540Z,22.15
2022-08-17T18:45:51.267Z,22.10
2022-08-17T18:48:17.958Z,22.01
2022-08-17T18:50:44.925Z,21.99
2022-08-17T18:53:37.027Z,21.93
2022-08-17T18:56:26.952Z,21.83
2022-08-17T18:59:03.694Z,21.76
2022-08-17T19:01:59.895Z,21.62
2022-08-17T19:04:59.261Z,21.56
2022-08-17T19:07:44.302Z,21.54
2022-08-17T19:10:46.061Z,21.47
2022-08-17T19:13:30.788Z,21.38
2022-08-17T19:16:25.413Z,21.39
2022-08-17T19:19:32.541Z,21.31
2022-08-17T19:22:30.668Z,21.26
2022-08-17T19:25:10.922Z,21.24
2022-08-17T19:27:57.640Z,21.17
2022-08-17T19:30:25.298Z,21.15
2022-08-17T19:32:53.171Z,21.13
2022-08-17T19:35:24.584Z,21.09
2022-08-17T19:38:03.098Z,20.99
2022-08-17T19:40:53.759Z,20.94
2022-08-17T19:43:42.823Z,20.83
2022-08-17T19:46:27.532Z,20.82
2022-08-17T19:48:54.257Z,20.81
2022-08-17T19:51:40.631Z,20.77
2022-08-17T19:54:34.800Z,20.72
2022-08-17T19:57:20.389Z,20.67
2022-08-17T20:00:10.505Z,20.62
2022-08-17T20:03:06.225Z,20.60
2022-08-17T20:06:08.699Z,20.60
2022-08-17T20:08:34.573Z,20.60
2022-08-17T20:11:11.680Z,20.55
2022-08-17T20:13:51.326Z,20.52
2022-08-17T20:16:19.450Z,20.51
2022-08-17T20:19:12.365Z,20.45
2022-08-17T20:22:03.783Z,20.41
2022-08-17T20:24:36.215Z,20.40
2022-08-17T20:27:16.414Z,20.36
2022-08-17T20:30:33.142Z,20.32
2022-08-17T20:33:02.374Z,20.25
2022-08-17T20:35:37.749Z,20.23
2022-08-17T20:38:13.605Z,20.16
2022-08-17T20:40:55.385Z,20.09
2022-08-17T20:43:35.641Z,20.05
2022-08-17T20:46:02.584Z,20.01
2022-08-17T20:48:38.742Z,19.97
2022-08-17T20:51:34.793Z,19.93
2022-08-17T20:54:08.139Z,19.86
2022-08-17T20:56:43.625Z,19.85
2022-08-17T20:59:25.868Z,19.85
2022-08-17T21:02:18.182Z,19.88
2022-08-17T21:04:57.321Z,19.87
2022-08-17T21:07:32.942Z,19.83
2022-08-17T21:10:11.651Z,19.80
2022-08-17T21:12:47.982Z,19.78
2022-08-17T21:15:29.603Z,19.75
2022-08-17T21:18:08.766Z,19.67
2022-08-17T21:20:57.506Z,19.62
2022-08-17T21:23:46.479Z,19.58
2022-08-17T21:26:19.139Z,19.51
2022-08-17T21:29:29.847Z,19.46
2022-08-17T21:32:03.326Z,19.45
2022-08-17T21:35:08.670Z,19.45
2022-08-17T21:37:48.073Z,19.44
2022-08-17T21:40:18.102Z,19.43
2022-08-17T21:43:05.186Z,19.43
2022-08-17T21:45:36.072Z,19.40
2022-08-17T21:48:27.457Z,19.38
2022-08-17T21:50:59.264Z,19.32
2022-08-17T21:53:34.791Z,19.29
2022-08-17T21:56:01.654Z,19.24
2022-08-17T21:58:32.831Z,19.20
2022-08-17T22:01:13.761Z,19.15
2022-08-17T22:03:41.244Z,19.14
2022-08-17T22:06:30.391Z,19.12
2022-08-17T22:09:10.647Z,19.12
2022-08-17T22:11:56.650Z,19.08
2022-08-17T22:14:26.130Z,19.05
2022-08-17T22:17:22.065Z,19.04
2022-08-17T22:19:51.489Z,19.02
2022-08-17T22:22:28.803Z,19.00
2022-08-17T22:25:01.787Z,18.99
2022-08-17T22:27:49.628Z,18.96
2022-08-17T22:30:37.763Z,18.92
2022-08-17T22:33:43.224Z,18.87
2022-08-17T22:36:14.213Z,18.82
2022-08-17T22:38:43.493Z,18.80
2022-08-17T22:41:16.087Z,18.76
2022-08-17T22:43:43.720Z,18.74
2022-08-17T22:46:12.581Z,18.68
2022-08-17T22:48:50.861Z,18.65
2022-08-17T22:51:28.428Z,18.62
2022-08-17T22:54:26.121Z,18.57
2022-08-17T22:57:18.803Z,18.48
2022-08-17T22:59:52.677Z,18.48
2022-08-17T23:02:21.937Z,18.45
2022-08-17T23:04:57.741Z,18.41
2022-08-17T23:07:24.511Z,18.40
2022-08-17T23:09:52.890Z,18.33
2022-08-17T23:12:26.493Z,18.24
2022-08-17T23:15:00.644Z,18.17
2022-08-17T23:17:37.087Z,18.16
2022-08-17T23:20:08.601Z,18.16
2022-08-17T23:22:51.241Z,18.16
2022-08-17T23:25:27.979Z,18.15
2022-08-17T23:27:55.388Z,18.16
2022-08-17T23:30:25.472Z,18.16
2022-08-17T23:32:54.304Z,18.15
2022-08-17T23:35:38.926Z,18.17
2022-08-17T23:38:08.227Z,18.11
2022-08-17T23:40:35.018Z,18.13
2022-08-17T23:43:04.557Z,18.18
2022-08-17T23:45:36.439Z,18.23
2022-08-17T23:48:06.679Z,18.24
2022-08-17T23:50:34.120Z,18.26
2022-08-17T23:53:03.150Z,18.27
2022-08-17T23:55:34.629Z,18.28
2022-08-17T23:58:05.463Z,18.28
